首页
METAR-TAF:

METAR-TAF

机场 :

Comox, 不列颠哥伦比亚, 加拿大

纬度: 49-43N, 经度: 124-54W, 海拔: 24米

当前天气观测

该预报发布于1小时和2分钟前的21:00 UTC
风速6节,风向东北
温度 23°C
湿度 44%
气压 1011 hPa
能見度: 32.2公里
少量云层高于20000英尺

METAR: CYQQ 262100Z 04006KT 20SM FEW200 23/10 A2985 RMK CI1 SLP108

时间: 15:02 (22:02 UTC)

预报

该预报发布于4小时和23分钟前的17:39 UTC
预报有效从26日的 18点(UTC)到 27日的 18点(UTC)
风速8节,风向北转东北
能見度: 10公里
少量云层高于25000英尺
成为
从 26日的 22点(UTC)到 26日的 24点(UTC)
风速3节,风向多变

TAF: CYQQ 261739Z 2618/2718 02008KT P6SM FEW250 BECMG 2622/2624 VRB03KT RMK NXT FCST BY 270000Z

超过4000个机场的气象观测和天气预报(METAR&TAF报告)。

可查询的气象台以黄色和红色小点在地图上表示。

将鼠标移到小点上方,可查看气象台名称。

然后点击查看天气观测和预报。

如需切换地图:点击带黑十字的绿色按钮放大地图;点击带横线的绿色按钮缩小地图;或者点击绿色箭头查看邻近地区的地图。


METAR-TAF: